PAGY/SGY METAR and TAF weather

Enter ICAO airport designator
Station Type Date Time Source
PAGY METAR 2019/07/20 18:53 UTC NOAA

PAGY 201853Z AUTO 24008KT 10SM FEW007 BKN012 OVC026 12/11 A3013 RMK SLP201 T01220111 TSNO $ VIA AUTODIAL


Station Type Date Time Source
PAGY Decoded METAR 2019/07/20 18:53 UTC NOAA

SKAGWAY AIRPORT, AK, United States (PAGY) 59-28N 135-19W 5M
Jul 20, 2019 - 02:53 PM EDT / 2019.07.20 1853 UTC
Wind: from the WSW (240 degrees) at 9 MPH (8 KT):0
Visibility: 10 mile(s):0
Sky conditions: overcast
Temperature: 54.0 F (12.2 C)
Dew Point: 52.0 F (11.1 C)
Relative Humidity: 92%
Pressure (altimeter): 30.13 in. Hg (1020 hPa)
ob: PAGY 201853Z AUTO 24008KT 10SM FEW007 BKN012 OVC026 12/11 A3013 RMK SLP201 T01220111 TSNO VIA AUTODIAL
cycle: 19

Station Type Date Time Source
PAGY TAF 2019/07/20 18:42 UTC NOAA

TAF PAGY 201740Z 2018/2118 24008KT P6SM FEW015 OVC035
TEMPO 2018/2020 BKN025
FM202200 21015KT P6SM SCT035 OVC060
FM210600 23005KT P6SM FEW015 BKN025 OVC050
AMD LTD TO CLD VIS AND WIND

Example: see airport list